Time;durP1;ratioP1;P1;durP2;ratioP2;P2;SDS_P1;SDS_P2;PMS_P1;PMS_P2;Temp;Humidity;BMP_temperature;BMP_pressure;BME280_temperature;BME280_humidity;BME280_pressure;Samples;Min_cycle;Max_cycle;Signal;HPM_P1;HPM_P2
2023/04/30 00:01:57;;;;;;;2.40;1.95;;;12.10;99.90;;;;;;4953980;29;20031;-76
2023/04/30 00:04:22;;;;;;;1.70;1.60;;;12.10;99.90;;;;;;4952111;29;20051;-76
2023/04/30 00:06:48;;;;;;;2.60;2.03;;;12.10;99.90;;;;;;4953505;29;20031;-75
2023/04/30 00:09:14;;;;;;;6.03;2.28;;;12.00;99.90;;;;;;4952298;29;20093;-76
2023/04/30 00:11:39;;;;;;;2.13;1.90;;;12.00;99.90;;;;;;4953673;29;20078;-75
2023/04/30 00:14:05;;;;;;;4.57;1.95;;;12.00;99.90;;;;;;4952636;29;20027;-73
2023/04/30 00:16:31;;;;;;;6.85;2.30;;;12.00;99.90;;;;;;4953028;28;20063;-75
2023/04/30 00:18:56;;;;;;;3.55;1.80;;;12.00;99.90;;;;;;4951719;29;20388;-76
2023/04/30 00:21:22;;;;;;;3.97;1.70;;;11.90;99.90;;;;;;4953395;29;20023;-76
2023/04/30 00:23:48;;;;;;;3.70;2.55;;;11.90;99.90;;;;;;4953373;29;20031;-75
2023/04/30 00:26:14;;;;;;;2.83;1.98;;;11.90;99.90;;;;;;4951990;29;20077;-75
2023/04/30 00:28:40;;;;;;;2.58;1.90;;;11.90;99.90;;;;;;4951835;29;20392;-76
2023/04/30 00:31:08;;;;;;;2.97;2.22;;;11.90;99.90;;;;;;4952223;28;20023;-76
2023/04/30 00:33:34;;;;;;;2.17;1.98;;;11.90;99.90;;;;;;4952298;29;20391;-76
2023/04/30 00:35:59;;;;;;;3.08;2.00;;;11.90;99.90;;;;;;4951850;29;20023;-75
2023/04/30 00:38:25;;;;;;;2.42;2.03;;;12.00;99.90;;;;;;4953103;29;20106;-76
2023/04/30 00:40:52;;;;;;;2.90;2.45;;;11.90;99.90;;;;;;4952026;29;20031;-76
2023/04/30 00:43:17;;;;;;;2.40;2.10;;;12.00;99.90;;;;;;4953318;28;20034;-76
2023/04/30 00:45:43;;;;;;;2.47;2.00;;;12.00;99.90;;;;;;4951579;28;20098;-76
2023/04/30 00:48:09;;;;;;;1.73;1.38;;;12.00;99.90;;;;;;4956327;29;20102;-75
2023/04/30 00:50:35;;;;;;;3.05;2.15;;;12.00;99.90;;;;;;4956084;29;20403;-75
2023/04/30 00:53:01;;;;;;;2.53;1.60;;;12.00;99.90;;;;;;4957307;29;20027;-75
2023/04/30 00:55:27;;;;;;;1.98;1.60;;;12.00;99.90;;;;;;4955605;29;20130;-75
2023/04/30 00:57:53;;;;;;;2.13;1.85;;;12.00;99.90;;;;;;4955463;29;20118;-75
2023/04/30 01:00:19;;;;;;;1.90;1.50;;;12.10;99.90;;;;;;4957256;28;20047;-75
2023/04/30 01:02:45;;;;;;;2.97;1.50;;;12.10;99.90;;;;;;4955581;28;20487;-75
2023/04/30 01:05:11;;;;;;;1.80;1.70;;;12.10;99.90;;;;;;4956501;29;20436;-75
2023/04/30 01:07:38;;;;;;;2.20;1.70;;;12.10;99.90;;;;;;4956680;29;20110;-75
2023/04/30 01:10:05;;;;;;;2.22;1.30;;;12.10;99.90;;;;;;4956900;28;20054;-75
2023/04/30 01:12:40;;;;;;;1.52;1.42;;;12.20;99.90;;;;;;4956595;28;20038;-75
2023/04/30 01:15:16;;;;;;;2.30;1.85;;;12.20;99.90;;;;;;4954839;29;20026;-75
2023/04/30 01:17:45;;;;;;;1.92;1.65;;;12.10;99.90;;;;;;4954966;29;20055;-76
2023/04/30 01:20:12;;;;;;;1.90;1.75;;;12.20;99.90;;;;;;4956807;29;20027;-75
2023/04/30 01:22:55;;;;;;;1.70;1.60;;;12.20;99.90;;;;;;4956724;29;20038;-76
2023/04/30 01:25:39;;;;;;;1.60;1.50;;;12.10;99.90;;;;;;4955172;29;20027;-75
2023/04/30 01:28:15;;;;;;;2.15;1.60;;;12.10;99.90;;;;;;4955633;28;20027;-76
2023/04/30 01:30:43;;;;;;;1.63;1.50;;;12.10;99.90;;;;;;4956536;28;20054;-76
2023/04/30 01:33:10;;;;;;;1.70;1.60;;;12.10;99.90;;;;;;4956611;28;20043;-74
2023/04/30 01:35:56;;;;;;;2.38;1.77;;;12.10;99.90;;;;;;4956258;28;20023;-76
2023/04/30 01:38:47;;;;;;;2.45;1.77;;;12.20;99.90;;;;;;4954556;29;20399;-75
2023/04/30 01:41:25;;;;;;;2.30;1.98;;;12.10;99.90;;;;;;4955232;29;20035;-75
2023/04/30 01:44:31;;;;;;;2.42;1.65;;;12.30;99.90;;;;;;4955074;29;20050;-75
2023/04/30 01:47:08;;;;;;;2.30;2.10;;;12.30;99.90;;;;;;4955165;29;20027;-75
2023/04/30 01:50:10;;;;;;;1.88;1.77;;;12.20;99.90;;;;;;4956062;29;20023;-74
2023/04/30 01:52:40;;;;;;;2.47;2.28;;;12.30;99.90;;;;;;4918637;29;20079;-75
2023/04/30 01:55:19;;;;;;;2.78;2.53;;;12.30;99.90;;;;;;4952163;29;20047;-76
2023/04/30 01:58:09;;;;;;;2.30;2.10;;;12.30;99.90;;;;;;4953835;28;20035;-76
2023/04/30 02:00:35;;;;;;;2.80;2.55;;;12.30;99.90;;;;;;4953351;28;20032;-76
2023/04/30 02:03:01;;;;;;;3.00;2.70;;;12.30;99.90;;;;;;4956272;28;20034;-75
2023/04/30 02:05:27;;;;;;;2.83;2.60;;;12.20;99.90;;;;;;4955842;28;20448;-76
2023/04/30 02:07:53;;;;;;;2.60;2.40;;;12.20;99.90;;;;;;4955665;28;20031;-75
2023/04/30 02:10:21;;;;;;;3.22;2.72;;;12.20;99.90;;;;;;4955916;29;20102;-76
2023/04/30 02:12:47;;;;;;;2.70;2.15;;;12.20;99.90;;;;;;4955842;29;20031;-76
2023/04/30 02:15:13;;;;;;;4.15;3.22;;;12.20;99.90;;;;;;4954256;29;20031;-75
2023/04/30 02:17:38;;;;;;;3.20;2.90;;;12.20;99.90;;;;;;4955462;28;20075;-75
2023/04/30 02:20:05;;;;;;;3.20;2.90;;;12.30;99.90;;;;;;4955791;28;20023;-76
2023/04/30 02:22:31;;;;;;;2.65;2.45;;;12.20;99.90;;;;;;4955747;28;20027;-76
2023/04/30 02:24:56;;;;;;;3.08;2.42;;;12.10;99.90;;;;;;4955409;29;20230;-76
2023/04/30 02:27:24;;;;;;;2.97;2.53;;;12.10;99.90;;;;;;4955195;29;20023;-76
2023/04/30 02:29:49;;;;;;;2.35;2.15;;;12.20;99.90;;;;;;4955539;28;20118;-76
2023/04/30 02:32:15;;;;;;;2.88;2.65;;;12.10;99.90;;;;;;4954430;29;20114;-75
2023/04/30 02:34:41;;;;;;;2.80;2.25;;;12.10;99.90;;;;;;4953839;29;20035;-76
2023/04/30 02:37:07;;;;;;;3.38;2.33;;;12.10;99.90;;;;;;4954073;29;20487;-76
2023/04/30 02:39:33;;;;;;;2.50;2.20;;;12.10;99.90;;;;;;4953430;29;20027;-75
2023/04/30 02:41:59;;;;;;;3.80;2.38;;;12.10;99.90;;;;;;4954125;29;20024;-75
2023/04/30 02:44:25;;;;;;;3.13;2.47;;;12.10;99.90;;;;;;4955198;29;20061;-76
2023/04/30 02:46:51;;;;;;;3.40;3.03;;;12.10;99.90;;;;;;4955162;29;20035;-75
2023/04/30 02:49:17;;;;;;;3.05;2.65;;;12.20;99.90;;;;;;4953897;29;20035;-76
2023/04/30 02:51:43;;;;;;;3.30;2.60;;;12.20;99.90;;;;;;4953822;29;20034;-75
2023/04/30 02:54:08;;;;;;;4.00;2.88;;;12.20;99.90;;;;;;4953780;29;20027;-75
2023/04/30 02:56:34;;;;;;;2.58;2.38;;;12.20;99.90;;;;;;4954588;29;20038;-75
2023/04/30 02:59:00;;;;;;;3.25;2.83;;;12.30;99.90;;;;;;4954632;29;20476;-75
2023/04/30 03:01:26;;;;;;;3.00;2.65;;;12.20;99.90;;;;;;4954967;28;20106;-75
2023/04/30 03:03:52;;;;;;;3.67;2.28;;;12.20;99.90;;;;;;4954806;29;20155;-75
2023/04/30 03:06:18;;;;;;;2.80;2.60;;;12.20;99.90;;;;;;4954579;28;20046;-74
2023/04/30 03:08:43;;;;;;;2.17;1.90;;;12.20;99.90;;;;;;4954544;29;20476;-76
2023/04/30 03:11:09;;;;;;;2.15;1.95;;;12.20;99.90;;;;;;4953293;28;20510;-76
2023/04/30 03:13:35;;;;;;;2.40;1.92;;;12.20;99.90;;;;;;4954835;28;20192;-75
2023/04/30 03:16:03;;;;;;;1.80;1.70;;;12.20;99.90;;;;;;4954582;28;20102;-75
2023/04/30 03:18:29;;;;;;;1.70;1.60;;;12.20;99.90;;;;;;4953018;29;20033;-75
2023/04/30 03:20:55;;;;;;;1.95;1.45;;;12.20;99.90;;;;;;4953163;29;20023;-75
2023/04/30 03:23:21;;;;;;;1.92;1.77;;;12.20;99.90;;;;;;4954059;29;20049;-75
2023/04/30 03:25:46;;;;;;;2.97;2.00;;;12.20;99.90;;;;;;4953949;29;20066;-74
2023/04/30 03:28:12;;;;;;;2.40;1.60;;;12.20;99.90;;;;;;4952652;29;20035;-75
2023/04/30 03:30:38;;;;;;;2.35;1.75;;;12.20;99.90;;;;;;4952965;29;20038;-75
2023/04/30 03:33:05;;;;;;;2.15;1.95;;;12.20;99.90;;;;;;4954170;29;20023;-75
2023/04/30 03:35:31;;;;;;;1.95;1.80;;;12.20;99.90;;;;;;4952518;29;20028;-74
2023/04/30 03:37:57;;;;;;;2.20;2.00;;;12.10;99.90;;;;;;4952258;28;20375;-75
2023/04/30 03:40:22;;;;;;;1.63;1.52;;;12.10;99.90;;;;;;4954024;29;20035;-75
2023/04/30 03:42:48;;;;;;;1.52;1.42;;;12.10;99.90;;;;;;4954224;29;20030;-75
2023/04/30 03:45:14;;;;;;;1.73;1.50;;;12.10;99.90;;;;;;4953769;29;20173;-75
2023/04/30 03:47:39;;;;;;;1.52;1.42;;;12.10;99.90;;;;;;4952071;29;20031;-75
2023/04/30 03:50:06;;;;;;;1.55;1.35;;;12.10;99.90;;;;;;4952606;29;20031;-74
2023/04/30 03:52:32;;;;;;;1.88;1.63;;;12.10;99.90;;;;;;4952673;29;20126;-75
2023/04/30 03:54:58;;;;;;;1.70;1.40;;;12.10;99.90;;;;;;4953580;28;20151;-74
2023/04/30 03:57:24;;;;;;;1.70;1.60;;;12.00;99.90;;;;;;4952160;29;20038;-75
2023/04/30 03:59:50;;;;;;;2.00;1.67;;;12.00;99.90;;;;;;4953927;28;20027;-75
2023/04/30 04:02:16;;;;;;;2.70;1.42;;;12.00;99.90;;;;;;4952716;28;20054;-75
2023/04/30 04:04:42;;;;;;;1.67;1.52;;;11.90;99.90;;;;;;4953695;29;20098;-75
2023/04/30 04:07:10;;;;;;;2.03;1.38;;;11.90;99.90;;;;;;4953974;28;20023;-75
2023/04/30 04:09:36;;;;;;;1.98;1.50;;;11.90;99.90;;;;;;4953466;28;20032;-75
2023/04/30 04:12:01;;;;;;;1.73;1.63;;;11.80;99.90;;;;;;4953792;29;20393;-75
2023/04/30 04:14:27;;;;;;;2.15;1.45;;;11.90;99.90;;;;;;4952497;29;20031;-75
2023/04/30 04:16:52;;;;;;;4.82;1.70;;;11.80;99.90;;;;;;4953457;29;20031;-75
2023/04/30 04:19:18;;;;;;;1.80;1.63;;;11.90;99.90;;;;;;4952228;29;20118;-75
2023/04/30 04:21:44;;;;;;;2.20;1.73;;;11.80;99.90;;;;;;4951948;28;20058;-75
2023/04/30 04:24:10;;;;;;;3.00;2.15;;;11.90;99.90;;;;;;4953850;28;20094;-76
2023/04/30 04:26:36;;;;;;;2.05;1.77;;;11.80;99.90;;;;;;4951950;29;20027;-76
2023/04/30 04:29:03;;;;;;;2.50;1.60;;;11.80;99.90;;;;;;4953089;29;20635;-76
2023/04/30 04:31:30;;;;;;;1.60;1.50;;;11.90;99.90;;;;;;4953372;28;20114;-75
2023/04/30 04:33:57;;;;;;;1.80;1.70;;;11.90;99.90;;;;;;4952140;29;20392;-75
2023/04/30 04:36:27;;;;;;;4.25;2.65;;;11.80;99.90;;;;;;4953047;29;20057;-75
2023/04/30 04:38:56;;;;;;;4.05;2.53;;;11.90;99.90;;;;;;4951882;28;20019;-74
2023/04/30 04:41:23;;;;;;;2.80;2.40;;;11.90;99.90;;;;;;4953327;28;20063;-75
2023/04/30 04:43:49;;;;;;;3.78;2.35;;;11.90;99.90;;;;;;4952044;29;20151;-75
2023/04/30 04:46:15;;;;;;;2.33;2.10;;;12.00;99.90;;;;;;4951804;29;20051;-75
2023/04/30 04:48:41;;;;;;;2.83;1.88;;;12.10;99.90;;;;;;4951544;29;20031;-76
2023/04/30 04:51:07;;;;;;;2.10;1.90;;;12.20;99.90;;;;;;4953023;28;20024;-75
2023/04/30 04:53:33;;;;;;;2.22;2.03;;;12.10;99.90;;;;;;4953191;29;20031;-75
2023/04/30 04:55:59;;;;;;;1.52;1.42;;;12.10;99.90;;;;;;4952904;29;20083;-75
2023/04/30 04:58:24;;;;;;;1.70;1.60;;;12.00;99.90;;;;;;4952812;29;20067;-75
2023/04/30 05:00:50;;;;;;;2.22;2.00;;;12.00;99.90;;;;;;4953234;29;20034;-75
2023/04/30 05:03:16;;;;;;;3.75;1.50;;;12.10;99.90;;;;;;4951948;29;20102;-75
2023/04/30 05:05:42;;;;;;;1.70;1.60;;;12.10;99.90;;;;;;4951615;29;20024;-75
2023/04/30 05:08:08;;;;;;;2.10;1.85;;;12.00;99.90;;;;;;4952902;29;20053;-75
2023/04/30 05:10:33;;;;;;;1.80;1.67;;;12.00;99.90;;;;;;4953039;29;20028;-75
2023/04/30 05:12:59;;;;;;;2.40;1.73;;;12.00;99.90;;;;;;4952248;29;20073;-75
2023/04/30 05:15:25;;;;;;;2.13;1.67;;;12.10;99.90;;;;;;4952805;29;20023;-75
2023/04/30 05:17:50;;;;;;;1.65;1.55;;;12.20;99.90;;;;;;4952440;29;20480;-75
2023/04/30 05:20:16;;;;;;;1.52;1.42;;;12.30;99.90;;;;;;4952992;29;20095;-74
2023/04/30 05:22:41;;;;;;;3.20;2.28;;;12.30;99.90;;;;;;4953205;29;20102;-76
2023/04/30 05:25:08;;;;;;;2.35;1.45;;;12.50;99.90;;;;;;4952691;29;20023;-75
2023/04/30 05:27:33;;;;;;;1.88;1.40;;;12.60;99.90;;;;;;4952503;29;20042;-75
2023/04/30 05:29:59;;;;;;;1.65;1.55;;;12.60;99.90;;;;;;4951419;29;20035;-75
2023/04/30 05:32:26;;;;;;;2.47;1.50;;;12.80;99.90;;;;;;4953424;28;20031;-75
2023/04/30 05:34:52;;;;;;;1.45;1.35;;;12.90;99.90;;;;;;4955045;29;20448;-75
2023/04/30 05:37:19;;;;;;;1.80;1.30;;;13.10;99.90;;;;;;4953007;29;20493;-75
2023/04/30 05:39:45;;;;;;;1.60;1.17;;;13.20;99.90;;;;;;4956134;28;20031;-74
2023/04/30 05:42:11;;;;;;;2.47;1.17;;;13.10;99.90;;;;;;4955084;29;20068;-74
2023/04/30 05:44:36;;;;;;;1.45;1.05;;;13.20;99.90;;;;;;4955882;29;20031;-75
2023/04/30 05:47:02;;;;;;;2.85;1.80;;;13.20;99.90;;;;;;4954909;28;20118;-76
2023/04/30 05:49:29;;;;;;;2.75;2.03;;;13.10;99.90;;;;;;4954370;29;20035;-74
2023/04/30 05:51:54;;;;;;;1.88;1.55;;;12.90;99.90;;;;;;4955786;28;20038;-74
2023/04/30 05:54:20;;;;;;;1.90;1.48;;;13.50;99.90;;;;;;4956660;29;20031;-74
2023/04/30 05:56:46;;;;;;;1.80;1.70;;;13.60;99.90;;;;;;4954978;29;20023;-74
2023/04/30 05:59:11;;;;;;;1.88;1.67;;;13.60;99.90;;;;;;4955600;29;20387;-73
2023/04/30 06:01:37;;;;;;;2.22;1.85;;;13.80;99.90;;;;;;4955945;29;20031;-74
2023/04/30 06:04:03;;;;;;;1.42;1.33;;;13.90;99.90;;;;;;4955975;29;20074;-74
2023/04/30 06:06:30;;;;;;;1.52;1.23;;;13.80;99.70;;;;;;4954253;29;20115;-75
2023/04/30 06:08:56;;;;;;;1.38;1.27;;;13.90;99.30;;;;;;4954543;28;20023;-74
2023/04/30 06:11:24;;;;;;;2.08;1.60;;;14.00;98.50;;;;;;4955805;29;20062;-75
2023/04/30 06:13:50;;;;;;;1.70;1.52;;;14.00;98.50;;;;;;4954416;29;20453;-74
2023/04/30 06:16:16;;;;;;;1.73;1.63;;;14.00;98.70;;;;;;4953891;29;20474;-75
2023/04/30 06:18:41;;;;;;;1.67;1.50;;;14.20;98.90;;;;;;4955211;28;20027;-75
2023/04/30 06:21:07;;;;;;;1.58;1.38;;;14.30;98.00;;;;;;4955481;29;20024;-75
2023/04/30 06:23:33;;;;;;;2.75;1.55;;;14.30;96.90;;;;;;4955405;29;20150;-74
2023/04/30 06:25:58;;;;;;;1.17;1.08;;;14.30;97.20;;;;;;4955197;29;20027;-75
2023/04/30 06:28:24;;;;;;;2.15;1.52;;;14.50;97.10;;;;;;4953846;29;20028;-75
2023/04/30 06:30:51;;;;;;;1.73;1.20;;;14.70;95.90;;;;;;4955350;28;20035;-75
2023/04/30 06:33:16;;;;;;;3.88;2.50;;;14.60;94.50;;;;;;4955358;29;20110;-74
2023/04/30 06:35:42;;;;;;;2.25;1.70;;;14.60;93.80;;;;;;4954858;29;20106;-75
2023/04/30 06:38:08;;;;;;;2.00;1.70;;;14.70;94.50;;;;;;4953654;29;20027;-75
2023/04/30 06:40:34;;;;;;;2.15;1.95;;;14.70;92.60;;;;;;4955118;28;20034;-75
2023/04/30 06:43:00;;;;;;;1.20;1.10;;;14.70;92.40;;;;;;4955101;29;20090;-74
2023/04/30 06:45:25;;;;;;;4.47;1.60;;;14.90;92.30;;;;;;4954081;28;20477;-74
2023/04/30 06:47:52;;;;;;;2.60;2.13;;;14.70;91.70;;;;;;4952894;29;20376;-75
2023/04/30 06:50:18;;;;;;;2.35;1.85;;;14.90;92.20;;;;;;4954862;28;20051;-74
2023/04/30 06:52:43;;;;;;;1.55;1.10;;;15.00;92.00;;;;;;4954307;29;20523;-75
2023/04/30 06:55:10;;;;;;;3.35;1.15;;;15.20;91.10;;;;;;4955512;29;20531;-74
2023/04/30 06:57:36;;;;;;;1.92;1.55;;;15.20;90.00;;;;;;4945327;29;20492;-75
2023/04/30 07:00:04;;;;;;;2.22;1.70;;;15.20;86.80;;;;;;4946308;29;20031;-75
2023/04/30 07:02:30;;;;;;;1.52;1.27;;;15.40;87.90;;;;;;4955200;28;20102;-75
2023/04/30 07:04:56;;;;;;;1.73;1.48;;;15.30;84.70;;;;;;4953621;29;20131;-75
2023/04/30 07:07:22;;;;;;;4.47;1.80;;;15.20;85.30;;;;;;4953455;29;20027;-74
2023/04/30 07:09:47;;;;;;;1.50;1.40;;;15.30;84.50;;;;;;4955279;28;20439;-74
2023/04/30 07:12:13;;;;;;;1.30;1.20;;;15.40;84.60;;;;;;4959476;29;20027;-74
2023/04/30 07:14:39;;;;;;;1.75;1.42;;;15.50;82.80;;;;;;4958640;28;20023;-74
2023/04/30 07:17:05;;;;;;;1.77;1.10;;;15.60;83.30;;;;;;4971322;29;20031;-75
2023/04/30 07:19:31;;;;;;;1.33;1.13;;;15.50;82.60;;;;;;4971576;29;20031;-75
2023/04/30 07:21:57;;;;;;;1.30;1.20;;;15.70;81.40;;;;;;4967557;29;20023;-75
2023/04/30 07:24:22;;;;;;;1.13;1.02;;;15.90;80.90;;;;;;4967864;28;20403;-74
2023/04/30 07:26:48;;;;;;;1.35;1.10;;;16.10;80.90;;;;;;4970500;28;20030;-74
2023/04/30 07:29:14;;;;;;;1.50;1.40;;;16.00;78.30;;;;;;4957235;28;20031;-75
2023/04/30 07:31:39;;;;;;;1.98;1.70;;;15.90;79.80;;;;;;4955177;29;20031;-76
2023/04/30 07:34:05;;;;;;;1.48;1.38;;;15.80;78.80;;;;;;4955016;29;20102;-75
2023/04/30 07:36:30;;;;;;;1.30;1.20;;;15.80;78.20;;;;;;4954169;29;20027;-75
2023/04/30 07:38:56;;;;;;;1.35;1.25;;;15.80;77.90;;;;;;4954245;29;20510;-75
2023/04/30 07:41:24;;;;;;;1.23;1.15;;;15.90;79.70;;;;;;4957070;29;20034;-78
2023/04/30 07:43:49;;;;;;;2.80;1.35;;;15.70;77.60;;;;;;4956616;28;20028;-74
2023/04/30 07:46:15;;;;;;;1.38;1.27;;;15.70;79.70;;;;;;4954467;29;20023;-75
2023/04/30 07:48:41;;;;;;;1.33;1.15;;;15.90;81.10;;;;;;4960072;29;20051;-73
2023/04/30 07:51:06;;;;;;;1.63;1.52;;;16.00;78.90;;;;;;4954206;29;20027;-77
2023/04/30 07:53:32;;;;;;;1.98;1.63;;;16.10;79.10;;;;;;4953434;29;20027;-75
2023/04/30 07:55:57;;;;;;;2.15;1.92;;;16.20;77.70;;;;;;4952745;28;20060;-74
2023/04/30 07:58:23;;;;;;;2.55;2.35;;;16.00;78.00;;;;;;4953005;29;20491;-74
2023/04/30 08:00:49;;;;;;;1.90;1.63;;;15.90;78.50;;;;;;4953072;29;20059;-74
2023/04/30 08:03:15;;;;;;;2.88;1.23;;;15.60;78.30;;;;;;4951969;29;20023;-75
2023/04/30 08:05:40;;;;;;;4.30;1.75;;;15.70;79.50;;;;;;4952840;29;20042;-75
2023/04/30 08:08:07;;;;;;;1.75;1.65;;;16.00;79.40;;;;;;4952831;29;20027;-75
2023/04/30 08:10:32;;;;;;;1.83;1.50;;;16.10;77.40;;;;;;4954330;28;20047;-75
2023/04/30 08:12:58;;;;;;;1.77;1.67;;;16.00;76.90;;;;;;4954021;29;20479;-74
2023/04/30 08:15:24;;;;;;;2.88;1.85;;;16.10;77.10;;;;;;4955070;28;20127;-76
2023/04/30 08:17:50;;;;;;;2.45;1.60;;;16.30;77.70;;;;;;4953924;28;20431;-75
2023/04/30 08:20:16;;;;;;;2.13;1.50;;;16.40;77.80;;;;;;4954943;29;20027;-76
2023/04/30 08:22:43;;;;;;;2.20;2.00;;;16.60;76.90;;;;;;4954498;28;20019;-75
2023/04/30 08:25:12;;;;;;;2.28;2.00;;;16.50;77.00;;;;;;4952412;29;20061;-75
2023/04/30 08:27:38;;;;;;;2.05;1.88;;;16.60;76.70;;;;;;4954211;29;20035;-77
2023/04/30 08:30:06;;;;;;;1.50;1.40;;;16.30;74.30;;;;;;4957131;29;20051;-76
2023/04/30 08:32:37;;;;;;;1.35;1.25;;;16.10;75.00;;;;;;4957849;28;20063;-79
2023/04/30 08:35:07;;;;;;;2.88;1.90;;;15.80;74.90;;;;;;4955134;29;20029;-79
2023/04/30 08:37:33;;;;;;;2.58;1.67;;;15.70;75.70;;;;;;4956904;29;20028;-78
2023/04/30 08:39:59;;;;;;;1.60;1.50;;;15.70;75.30;;;;;;4967109;29;20026;-81
2023/04/30 08:42:29;;;;;;;2.20;1.48;;;15.70;76.90;;;;;;4971386;28;20687;-78
2023/04/30 08:44:55;;;;;;;6.10;1.92;;;15.80;76.20;;;;;;4967701;29;20019;-77
2023/04/30 08:47:22;;;;;;;4.82;1.98;;;15.80;76.70;;;;;;4968135;28;20031;-77
2023/04/30 08:49:49;;;;;;;2.17;1.70;;;15.90;76.00;;;;;;4969516;29;20376;-77
2023/04/30 08:52:14;;;;;;;3.95;1.38;;;15.80;75.10;;;;;;4968754;28;20023;-77
2023/04/30 08:54:41;;;;;;;3.33;1.85;;;15.80;75.30;;;;;;4969168;28;20027;-77
2023/04/30 08:57:07;;;;;;;2.70;1.95;;;16.10;75.60;;;;;;4970104;29;20403;-77
2023/04/30 08:59:32;;;;;;;1.67;1.58;;;16.40;74.90;;;;;;4965882;29;20118;-77
2023/04/30 09:02:00;;;;;;;1.95;1.77;;;16.40;73.00;;;;;;4967882;28;20054;-77
2023/04/30 09:04:27;;;;;;;1.40;1.30;;;16.60;73.40;;;;;;4968614;28;20023;-77
2023/04/30 09:06:59;;;;;;;3.03;2.30;;;16.50;72.80;;;;;;4968669;28;20034;-78
2023/04/30 09:09:29;;;;;;;2.35;1.95;;;16.50;72.90;;;;;;4973890;28;20038;-77
2023/04/30 09:12:19;;;;;;;4.07;2.22;;;16.50;73.30;;;;;;4969643;29;20027;-78
2023/04/30 09:15:02;;;;;;;4.18;1.85;;;16.30;74.00;;;;;;4968944;29;20027;-77
2023/04/30 09:17:29;;;;;;;2.25;2.05;;;16.30;74.30;;;;;;4972799;28;20027;-78
2023/04/30 09:20:08;;;;;;;4.68;2.40;;;16.10;73.90;;;;;;4971616;29;20019;-77
2023/04/30 09:22:35;;;;;;;2.45;1.85;;;15.90;74.80;;;;;;4972650;29;20051;-79
2023/04/30 09:25:01;;;;;;;3.45;1.80;;;15.90;74.70;;;;;;4971719;28;20023;-79
2023/04/30 09:27:27;;;;;;;4.22;2.50;;;16.00;73.90;;;;;;4971906;29;20031;-77
2023/04/30 09:29:53;;;;;;;8.43;2.25;;;16.00;75.10;;;;;;4971461;29;20070;-77
2023/04/30 09:32:18;;;;;;;1.88;1.75;;;16.40;74.20;;;;;;4973198;29;20031;-78
2023/04/30 09:34:44;;;;;;;4.45;2.35;;;16.60;72.30;;;;;;4972309;28;20031;-78
2023/04/30 09:37:11;;;;;;;3.35;3.05;;;16.70;74.10;;;;;;4972701;28;20395;-80
2023/04/30 09:39:55;;;;;;;2.30;1.95;;;16.70;71.50;;;;;;4970318;28;20035;-79
2023/04/30 09:42:21;;;;;;;2.13;1.90;;;16.60;74.10;;;;;;4968086;29;20027;-77
2023/04/30 09:44:47;;;;;;;2.17;1.95;;;16.80;74.50;;;;;;4957109;28;20070;-77
2023/04/30 09:47:18;;;;;;;2.63;1.40;;;16.90;73.40;;;;;;4958392;29;20106;-79
2023/04/30 09:49:50;;;;;;;3.28;1.70;;;16.90;71.90;;;;;;4956927;28;20030;-78
2023/04/30 09:52:16;;;;;;;4.03;1.65;;;16.90;72.20;;;;;;4957202;28;20027;-76
2023/04/30 09:54:44;;;;;;;2.08;1.70;;;16.90;71.20;;;;;;4956207;29;20488;-77
2023/04/30 09:57:12;;;;;;;3.85;2.15;;;17.20;72.50;;;;;;4958081;28;20058;-77
2023/04/30 09:59:42;;;;;;;2.80;1.70;;;17.30;69.00;;;;;;4955714;28;20050;-77
2023/04/30 10:02:08;;;;;;;1.65;1.40;;;17.30;69.30;;;;;;4956456;28;20476;-76
2023/04/30 10:04:36;;;;;;;3.47;2.28;;;17.30;71.10;;;;;;4955934;28;20027;-76
2023/04/30 10:07:09;;;;;;;2.95;1.77;;;17.30;69.10;;;;;;4958094;29;20027;-77
2023/04/30 10:09:40;;;;;;;2.47;1.83;;;17.20;71.00;;;;;;4957707;28;20034;-77
2023/04/30 10:12:12;;;;;;;2.10;1.63;;;17.30;71.70;;;;;;4956679;28;20086;-77
2023/04/30 10:14:40;;;;;;;2.85;1.90;;;17.30;70.50;;;;;;4956688;29;20038;-77
2023/04/30 10:17:15;;;;;;;4.60;1.75;;;17.40;70.00;;;;;;4957048;29;20090;-76
2023/04/30 10:19:47;;;;;;;2.78;1.92;;;17.20;70.10;;;;;;4956927;28;20019;-77
2023/04/30 10:22:13;;;;;;;2.33;1.45;;;17.40;69.30;;;;;;4954956;29;20162;-76
2023/04/30 10:24:40;;;;;;;2.97;2.38;;;17.50;69.30;;;;;;4957850;29;20075;-77
2023/04/30 10:27:06;;;;;;;2.38;1.50;;;17.80;69.40;;;;;;4958080;29;20050;-77
2023/04/30 10:29:32;;;;;;;1.45;1.30;;;17.50;68.00;;;;;;4956108;28;20113;-77
2023/04/30 10:31:58;;;;;;;1.88;1.70;;;17.50;67.20;;;;;;4956602;29;20035;-77
2023/04/30 10:34:59;;;;;;;2.38;1.80;;;17.40;67.50;;;;;;4955738;28;20031;-77
2023/04/30 10:37:37;;;;;;;3.17;1.58;;;17.40;67.20;;;;;;4955528;28;20122;-77
2023/04/30 10:40:04;;;;;;;1.95;1.75;;;17.50;69.20;;;;;;4958048;28;20031;-77
2023/04/30 10:42:30;;;;;;;1.75;1.60;;;17.50;67.60;;;;;;4957038;29;20031;-77
2023/04/30 10:44:56;;;;;;;2.13;1.73;;;17.60;67.40;;;;;;4955735;28;20023;-78
2023/04/30 10:47:28;;;;;;;1.90;1.65;;;17.20;65.80;;;;;;4955853;28;20051;-77
2023/04/30 10:50:07;;;;;;;3.47;2.20;;;17.40;68.90;;;;;;4955759;28;20042;-77
2023/04/30 10:52:32;;;;;;;2.58;1.33;;;17.50;67.40;;;;;;4955633;28;20113;-77
2023/04/30 10:55:03;;;;;;;2.33;2.13;;;17.70;69.10;;;;;;4956097;29;20126;-77
2023/04/30 10:57:29;;;;;;;2.00;1.60;;;18.00;67.00;;;;;;4954308;29;20027;-77
2023/04/30 11:00:07;;;;;;;2.47;1.60;;;18.20;67.90;;;;;;4957352;28;20047;-77
2023/04/30 11:02:43;;;;;;;2.10;1.95;;;18.40;65.40;;;;;;4955645;28;20159;-76
2023/04/30 11:05:10;;;;;;;2.58;1.60;;;18.40;65.50;;;;;;4955524;28;20051;-77
2023/04/30 11:07:44;;;;;;;4.63;1.73;;;18.10;65.10;;;;;;4955686;29;20038;-76
2023/04/30 11:10:12;;;;;;;1.77;1.33;;;18.00;65.60;;;;;;4955429;28;20041;-77
2023/04/30 11:12:40;;;;;;;3.53;1.38;;;18.20;67.30;;;;;;4956858;29;20036;-79
2023/04/30 11:15:15;;;;;;;2.95;1.92;;;18.30;64.60;;;;;;4954520;28;20480;-79
2023/04/30 11:17:48;;;;;;;2.92;1.60;;;18.10;64.60;;;;;;4954620;28;20059;-79
2023/04/30 11:20:19;;;;;;;2.78;1.80;;;18.10;66.60;;;;;;4954778;28;20480;-79
2023/04/30 11:22:44;;;;;;;1.98;1.48;;;18.10;64.80;;;;;;4956186;29;20089;-79
2023/04/30 11:25:12;;;;;;;1.88;1.73;;;18.00;65.60;;;;;;4955643;29;20424;-79
2023/04/30 11:27:41;;;;;;;1.90;1.70;;;18.00;65.60;;;;;;4955636;29;20027;-78
2023/04/30 11:30:12;;;;;;;2.78;2.30;;;17.90;64.90;;;;;;4954609;28;20035;-78
2023/04/30 11:32:38;;;;;;;1.73;1.63;;;18.10;65.70;;;;;;4954697;29;20162;-78
2023/04/30 11:35:05;;;;;;;1.85;1.73;;;17.80;65.30;;;;;;4956274;29;20023;-79
2023/04/30 11:37:39;;;;;;;2.72;1.85;;;17.50;65.70;;;;;;4954566;28;20028;-77
2023/04/30 11:40:12;;;;;;;3.00;1.60;;;17.60;65.20;;;;;;4954852;28;20400;-78
2023/04/30 11:42:40;;;;;;;1.27;1.17;;;17.70;65.30;;;;;;4956811;29;20056;-79
2023/04/30 11:45:10;;;;;;;1.95;1.50;;;17.90;63.60;;;;;;4955316;29;20081;-78
2023/04/30 11:47:42;;;;;;;1.55;1.45;;;18.20;63.70;;;;;;4956944;29;20090;-77
2023/04/30 11:50:10;;;;;;;2.70;1.80;;;18.40;65.40;;;;;;4957554;28;20035;-77
2023/04/30 11:52:36;;;;;;;2.38;1.70;;;18.20;64.90;;;;;;4954942;29;20099;-77
2023/04/30 11:55:14;;;;;;;3.45;2.25;;;18.00;65.10;;;;;;4952895;29;20035;-77
2023/04/30 11:57:44;;;;;;;1.92;1.75;;;17.90;65.80;;;;;;4955245;29;20027;-77
2023/04/30 12:00:15;;;;;;;2.08;1.92;;;17.90;66.90;;;;;;4955583;28;20027;-77
2023/04/30 12:02:44;;;;;;;1.65;1.55;;;17.80;66.20;;;;;;4955184;28;20029;-77
2023/04/30 12:05:21;;;;;;;2.42;2.05;;;18.00;65.70;;;;;;4953566;29;20023;-77
2023/04/30 12:07:54;;;;;;;3.42;1.98;;;17.80;64.20;;;;;;4955532;29;20392;-77
2023/04/30 12:10:21;;;;;;;3.17;2.05;;;17.80;64.80;;;;;;4955866;28;20485;-77
2023/04/30 12:12:50;;;;;;;3.15;1.92;;;17.90;66.50;;;;;;4954593;29;20395;-77
2023/04/30 12:15:25;;;;;;;5.10;2.17;;;17.90;65.20;;;;;;4954475;29;20027;-78
2023/04/30 12:17:53;;;;;;;1.95;1.70;;;18.10;65.50;;;;;;4955151;29;20051;-77
2023/04/30 12:20:20;;;;;;;5.35;1.70;;;18.00;64.10;;;;;;4955424;28;20023;-77
2023/04/30 12:22:46;;;;;;;2.35;1.80;;;17.70;63.80;;;;;;4954468;28;20078;-78
2023/04/30 12:25:17;;;;;;;2.58;2.00;;;17.50;64.10;;;;;;4954140;28;20023;-78
2023/04/30 12:27:48;;;;;;;2.45;1.80;;;17.50;64.30;;;;;;4954642;29;20027;-78
2023/04/30 12:30:14;;;;;;;3.53;1.75;;;17.50;66.20;;;;;;4954471;28;20024;-78
2023/04/30 12:32:45;;;;;;;1.33;1.23;;;17.60;63.80;;;;;;4954743;29;20396;-77
2023/04/30 12:35:19;;;;;;;1.58;1.48;;;17.60;64.40;;;;;;4954407;29;20389;-77
2023/04/30 12:37:53;;;;;;;2.72;2.30;;;17.50;64.70;;;;;;4953696;29;20024;-78
2023/04/30 12:40:21;;;;;;;3.35;1.83;;;17.90;65.90;;;;;;4952942;28;20038;-78
2023/04/30 12:42:47;;;;;;;1.55;1.23;;;17.70;63.20;;;;;;4952892;28;20497;-76
2023/04/30 12:45:37;;;;;;;1.83;1.70;;;17.60;63.20;;;;;;4955930;29;20110;-76
2023/04/30 12:48:03;;;;;;;1.67;1.58;;;17.80;64.40;;;;;;4955087;29;20086;-77
2023/04/30 12:50:28;;;;;;;2.25;1.65;;;17.90;65.50;;;;;;4955386;28;20031;-75
2023/04/30 12:52:54;;;;;;;2.08;1.63;;;18.00;64.90;;;;;;4955608;29;20562;-76